Terminal Aerodrome Forecast
Issued by NWS

Home | Current Version | Previous Version | Graphics & Text | Print | Product List | Glossary Off
Versions: 1 2 3 4 5 6 7 8 9 10 11 12 13 14 15 16 17 18 19 20 21 22 23 24 25 26 27 28 29 30 31 32 33 34 35 36 37 38 39 40 41 42 43 44 45 46

000
FTUS43 KDDC 192155 AAB
TAFGCK
TAF AMD
KGCK 192155Z 1922/2018 08023G32KT P6SM OVC006
     FM192300 07013G20KT 5SM -RA OVC008
     FM200200 02013G20KT 4SM -TSRA OVC003CB=

USA.gov is the U.S. government's official web portal to all federal, state and local government web resources and services.